Time;durP1;ratioP1;P1;durP2;ratioP2;P2;SDS_P1;SDS_P2;PMS_P1;PMS_P2;Temp;Humidity;BMP_temperature;BMP_pressure;BME280_temperature;BME280_humidity;BME280_pressure;Samples;Min_cycle;Max_cycle;Signal;HPM_P1;HPM_P2
2022/07/02 00:01:06;;;;;;;31.13;8.15;;;15.90;99.90;;;14.97;100.00;101655.69;4942001;28;20110;-78
2022/07/02 00:03:36;;;;;;;21.38;7.47;;;15.90;99.90;;;14.96;100.00;101662.78;4937625;28;20040;-78
2022/07/02 00:06:05;;;;;;;21.40;7.35;;;15.90;99.90;;;14.92;100.00;101652.41;4943190;28;20057;-77
2022/07/02 00:08:32;;;;;;;20.23;6.82;;;15.90;99.90;;;14.87;100.00;101646.47;4924107;28;20036;-77
2022/07/02 00:11:01;;;;;;;22.60;6.82;;;15.80;99.90;;;14.82;100.00;101648.50;4952363;28;20375;-78
2022/07/02 00:13:28;;;;;;;19.98;7.18;;;15.80;99.90;;;14.77;100.00;101643.41;4964286;28;20049;-78
2022/07/02 00:15:57;;;;;;;16.08;5.82;;;15.70;99.90;;;14.72;100.00;101653.41;4942074;28;20553;-78
2022/07/02 00:18:23;;;;;;;18.98;6.13;;;15.70;99.90;;;14.72;100.00;101662.19;4964503;28;20022;-78
2022/07/02 00:20:49;;;;;;;13.00;5.80;;;15.70;99.90;;;14.72;100.00;101651.59;4919026;28;20109;-77
2022/07/02 00:23:15;;;;;;;17.92;5.93;;;15.70;99.90;;;14.70;100.00;101648.16;4937048;28;20090;-78
2022/07/02 00:25:54;;;;;;;25.77;6.40;;;15.70;99.90;;;14.69;100.00;101656.22;4906620;28;20049;-78
2022/07/02 00:28:22;;;;;;;26.15;6.38;;;15.70;99.90;;;14.69;100.00;101656.22;4959080;28;20037;-77
2022/07/02 00:30:52;;;;;;;14.98;6.13;;;15.70;99.90;;;14.69;100.00;101661.50;4914470;28;20022;-78
2022/07/02 00:33:18;;;;;;;19.70;6.32;;;15.70;99.90;;;14.67;100.00;101656.28;4981397;28;20023;-77
2022/07/02 00:35:45;;;;;;;19.40;6.28;;;15.60;99.90;;;14.67;100.00;101655.44;4962100;28;20022;-78
2022/07/02 00:38:11;;;;;;;19.98;7.47;;;15.60;99.90;;;14.66;100.00;101653.69;4996190;28;20104;-78
2022/07/02 00:40:40;;;;;;;18.98;5.93;;;15.60;99.90;;;14.65;100.00;101654.63;4930935;28;20037;-78
2022/07/02 00:43:07;;;;;;;24.83;7.72;;;15.60;99.90;;;14.56;100.00;101640.91;4937477;28;20628;-77
2022/07/02 00:45:37;;;;;;;21.95;6.63;;;15.60;99.90;;;14.56;100.00;101650.66;4964662;28;20057;-77
2022/07/02 00:48:03;;;;;;;18.02;7.28;;;15.60;99.90;;;14.55;100.00;101655.06;4937187;28;20108;-78
2022/07/02 00:50:29;;;;;;;21.40;6.25;;;15.50;99.90;;;14.55;100.00;101647.13;4967136;28;20474;-78
2022/07/02 00:52:57;;;;;;;21.58;7.13;;;15.50;99.90;;;14.54;100.00;101647.19;4964586;28;20033;-77
2022/07/02 00:55:23;;;;;;;12.63;6.35;;;15.50;99.90;;;14.54;100.00;101644.53;4919382;28;20026;-78
2022/07/02 00:57:49;;;;;;;14.40;6.25;;;15.50;99.90;;;14.53;100.00;101645.44;4942045;28;20032;-77
2022/07/02 01:00:17;;;;;;;16.23;6.30;;;15.50;99.90;;;14.50;100.00;101641.16;4970970;28;20030;-78
2022/07/02 01:02:44;;;;;;;20.80;6.28;;;15.50;99.90;;;14.49;100.00;101644.75;4960466;28;20030;-78
2022/07/02 01:05:18;;;;;;;19.85;6.63;;;15.50;99.90;;;14.46;100.00;101652.84;4946657;28;20025;-78
2022/07/02 01:10:16;;;;;;;27.02;8.50;;;15.50;99.90;;;14.44;100.00;101656.50;4954956;28;20029;-77
2022/07/02 01:10:44;;;;;;;19.27;7.78;;;15.40;99.90;;;14.41;100.00;101661.97;4935105;28;20573;-77
2022/07/02 01:13:19;;;;;;;27.33;9.65;;;15.40;99.90;;;14.38;100.00;101656.78;4971372;28;20034;-78
2022/07/02 01:15:45;;;;;;;27.73;8.98;;;15.40;99.90;;;14.36;100.00;101662.16;4934167;28;20026;-78
2022/07/02 01:18:17;;;;;;;20.40;7.13;;;15.30;99.90;;;14.33;100.00;101664.97;4962311;28;20117;-77
2022/07/02 01:20:44;;;;;;;21.60;8.05;;;15.30;99.90;;;14.31;100.00;101664.16;4929912;28;20450;-77
2022/07/02 01:23:10;;;;;;;12.00;5.70;;;15.30;99.90;;;14.29;100.00;101660.72;4920822;28;20068;-78
2022/07/02 01:25:36;;;;;;;20.83;7.10;;;15.30;99.90;;;14.26;100.00;101669.69;4966285;28;20104;-78
2022/07/02 01:28:02;;;;;;;21.58;6.22;;;15.30;99.90;;;14.25;100.00;101661.81;4951785;28;20035;-78
2022/07/02 01:30:28;;;;;;;25.45;6.88;;;15.30;99.90;;;14.23;100.00;101663.66;4959887;28;20026;-78
2022/07/02 01:33:02;;;;;;;17.77;6.65;;;15.20;99.90;;;14.20;100.00;101663.81;4955478;28;20019;-79
2022/07/02 01:35:28;;;;;;;21.70;8.60;;;15.20;99.90;;;14.14;100.00;101665.81;4929300;28;20022;-78
2022/07/02 01:37:53;;;;;;;19.45;7.78;;;15.10;99.90;;;14.07;100.00;101660.88;4963368;28;20106;-77
2022/07/02 01:40:19;;;;;;;32.38;8.85;;;15.10;99.90;;;13.95;100.00;101655.22;4962932;28;21085;-78
2022/07/02 01:42:45;;;;;;;28.73;10.60;;;15.00;99.90;;;13.84;100.00;101653.97;4933139;28;20097;-77
2022/07/02 01:45:16;;;;;;;;;;;14.90;99.90;;;13.75;100.00;101650.81;4937292;28;20097;-80
2022/07/02 01:47:42;;;;;;;24.67;6.43;;;14.80;99.90;;;13.68;100.00;101652.03;4942778;28;19910;-77
2022/07/02 01:50:08;;;;;;;18.95;8.32;;;14.70;99.90;;;13.65;100.00;101659.25;4931903;28;20117;-77
2022/07/02 01:52:34;;;;;;;22.85;8.63;;;14.70;99.90;;;13.60;100.00;101659.44;4946601;28;20038;-78
2022/07/02 01:55:00;;;;;;;33.47;11.45;;;14.70;99.90;;;13.52;100.00;101653.66;4922202;28;20033;-77
2022/07/02 01:57:29;;;;;;;35.25;10.68;;;14.60;99.90;;;13.46;100.00;101651.28;4947863;28;20065;-77
2022/07/02 01:59:55;;;;;;;29.58;10.05;;;14.60;99.90;;;13.45;100.00;101649.53;4949456;28;20066;-77
2022/07/02 02:02:21;;;;;;;15.55;7.07;;;14.50;99.90;;;13.43;100.00;101661.97;4951188;28;20039;-77
2022/07/02 02:04:46;;;;;;;22.67;7.80;;;14.50;99.90;;;13.38;100.00;101654.25;4959544;28;20108;-78
2022/07/02 02:07:12;;;;;;;;;;;14.40;99.90;;;13.24;100.00;101662.75;4937977;28;20053;-78
2022/07/02 02:09:38;;;;;;;48.22;12.88;;;14.40;99.90;;;13.22;100.00;101664.59;4935709;28;19924;-77
2022/07/02 02:12:04;;;;;;;;;;;14.40;99.90;;;13.16;100.00;101670.16;4946449;28;20049;-77
2022/07/02 02:14:36;;;;;;;22.00;9.30;;;14.20;99.90;;;13.14;100.00;101672.00;4933525;28;20428;-77
2022/07/02 02:17:02;;;;;;;26.83;13.23;;;14.20;99.90;;;13.10;100.00;101673.91;4967741;28;20266;-78
2022/07/02 02:19:28;;;;;;;44.17;15.63;;;14.20;99.90;;;13.09;100.00;101676.63;4974346;28;20042;-77
2022/07/02 02:21:55;;;;;;;46.25;17.33;;;14.20;99.90;;;13.04;100.00;101686.53;4965069;28;20038;-78
2022/07/02 02:24:22;;;;;;;24.95;12.52;;;14.20;99.90;;;12.97;100.00;101693.00;4966032;28;20255;-77
2022/07/02 02:26:47;;;;;;;26.88;11.48;;;14.10;99.90;;;12.93;100.00;101689.63;4947891;28;20023;-78
2022/07/02 02:29:16;;;;;;;50.17;16.85;;;14.10;99.90;;;12.91;100.00;101687.06;4973613;28;20096;-78
2022/07/02 02:31:41;;;;;;;41.97;17.80;;;14.00;99.90;;;12.86;100.00;101696.94;4958556;28;20033;-78
2022/07/02 02:34:07;;;;;;;42.20;16.75;;;14.00;99.90;;;12.81;100.00;101691.00;4957782;28;20046;-77
2022/07/02 02:36:33;;;;;;;;;;;14.00;99.90;;;12.81;100.00;101701.56;4967953;28;20089;-77
2022/07/02 02:38:59;;;;;;;37.55;17.73;;;13.90;99.90;;;12.79;100.00;101706.03;4948694;28;19931;-77
2022/07/02 02:41:24;;;;;;;63.88;18.00;;;13.90;99.90;;;12.74;100.00;101713.28;4965746;28;20049;-78
2022/07/02 02:43:50;;;;;;;;;;;13.90;99.90;;;12.68;100.00;101716.19;4964586;28;20080;-78
2022/07/02 02:46:16;;;;;;;32.67;14.48;;;13.90;99.90;;;12.66;100.00;101718.88;4968240;28;19905;-77
2022/07/02 02:48:45;;;;;;;49.65;20.83;;;13.80;99.90;;;12.68;100.00;101719.69;4940666;28;20034;-78
2022/07/02 02:51:14;;;;;;;30.85;15.50;;;13.80;99.90;;;12.71;100.00;101721.34;4930182;28;20029;-78
2022/07/02 02:53:44;;;;;;;26.00;12.48;;;13.80;99.90;;;12.72;100.00;101726.56;4975754;28;20038;-77
2022/07/02 02:56:12;;;;;;;39.75;16.50;;;13.80;99.90;;;12.69;100.00;101733.75;4956724;28;20069;-78
2022/07/02 02:58:37;;;;;;;58.35;23.77;;;13.80;99.90;;;12.70;100.00;101730.22;4958325;28;20118;-78
2022/07/02 03:01:04;;;;;;;43.38;20.30;;;13.80;99.90;;;12.70;100.00;101735.50;4963254;28;20101;-78
2022/07/02 03:03:30;;;;;;;75.78;27.42;;;13.80;99.90;;;12.69;100.00;101734.59;4966420;28;20117;-78
2022/07/02 03:05:56;;;;;;;32.88;15.18;;;13.80;99.90;;;12.72;100.00;101733.63;4982600;28;20439;-77
2022/07/02 03:08:21;;;;;;;;;;;13.70;99.90;;;12.70;100.00;101740.78;4954756;28;20643;-77
2022/07/02 03:10:49;;;;;;;77.25;26.10;;;13.70;99.90;;;12.67;100.00;101749.66;4946194;28;19916;-78
2022/07/02 03:13:15;;;;;;;89.05;30.25;;;13.80;99.90;;;12.68;100.00;101751.41;4949852;28;20030;-78
2022/07/02 03:15:41;;;;;;;82.63;30.33;;;13.80;99.90;;;12.69;100.00;101749.59;4939040;28;20520;-77
2022/07/02 03:18:07;;;;;;;83.53;28.90;;;13.80;99.90;;;12.74;100.00;101752.91;4964966;28;20049;-78
2022/07/02 03:20:33;;;;;;;90.60;30.80;;;13.80;99.90;;;12.81;100.00;101749.13;4926616;28;20054;-78
2022/07/02 03:23:00;;;;;;;76.82;30.60;;;13.80;99.90;;;12.85;100.00;101750.75;4965538;28;20034;-77
2022/07/02 03:25:27;;;;;;;44.50;23.10;;;13.90;99.90;;;12.93;100.00;101753.91;4917396;28;20045;-77
2022/07/02 03:27:56;;;;;;;97.88;33.10;;;13.90;99.90;;;13.01;100.00;101753.63;4952865;28;20027;-77
2022/07/02 03:30:22;;;;;;;97.88;34.75;;;14.00;99.90;;;13.07;100.00;101760.44;4890412;28;20097;-77
2022/07/02 03:32:48;;;;;;;103.85;35.17;;;14.10;99.90;;;13.13;100.00;101765.47;4964621;28;20042;-78
2022/07/02 03:35:13;;;;;;;58.10;23.65;;;14.10;99.90;;;13.21;100.00;101760.72;4950095;28;20040;-78
2022/07/02 03:37:39;;;;;;;52.00;26.17;;;14.20;99.90;;;13.29;100.00;101771.88;5004637;28;20052;-78
2022/07/02 03:40:09;;;;;;;;;;;14.30;99.90;;;13.41;100.00;101765.25;4939672;28;20045;-78
2022/07/02 03:42:37;;;;;;;53.70;27.83;;;14.40;99.90;;;13.58;100.00;101763.66;4938938;28;19906;-77
2022/07/02 03:45:03;;;;;;;39.53;23.10;;;15.20;99.90;;;14.44;100.00;101778.38;4980362;28;20026;-78
2022/07/02 03:47:29;;;;;;;52.65;24.00;;;16.40;99.90;;;15.60;100.00;101777.22;4994250;22;20088;-78
2022/07/02 03:49:55;;;;;;;51.13;23.05;;;17.50;99.90;;;16.78;100.00;101789.53;4995653;28;20029;-78
2022/07/02 03:52:21;;;;;;;46.17;19.50;;;18.50;99.90;;;17.94;100.00;101794.41;4963625;28;20056;-77
2022/07/02 03:54:48;;;;;;;35.75;16.67;;;19.50;99.90;;;19.01;100.00;101805.50;4960406;28;20038;-78
2022/07/02 03:57:14;;;;;;;37.25;17.73;;;20.50;99.90;;;20.05;95.16;101811.00;4923560;28;20399;-78
2022/07/02 03:59:40;;;;;;;34.95;15.75;;;21.40;99.90;;;21.02;87.74;101809.47;4980764;28;21508;-78
2022/07/02 04:02:06;;;;;;;;;;;21.90;99.90;;;22.13;83.07;101818.03;4972015;28;20111;-79
2022/07/02 04:04:31;;;;;;;34.58;15.88;;;23.10;99.90;;;22.90;76.96;101825.34;4989308;28;19920;-78
2022/07/02 04:06:57;;;;;;;;;;;23.40;99.90;;;23.59;73.66;101829.56;4992023;22;20112;-78
2022/07/02 04:09:23;;;;;;;44.05;14.63;;;24.30;99.90;;;23.99;70.76;101838.78;4996235;28;19912;-78
2022/07/02 04:11:49;;;;;;;50.63;14.38;;;24.80;99.90;;;24.40;68.56;101842.38;4956258;28;20105;-78
2022/07/02 04:14:14;;;;;;;;;;;24.80;99.90;;;24.95;66.60;101845.59;4983578;28;20052;-78
2022/07/02 04:16:40;;;;;;;39.58;13.45;;;25.50;99.90;;;25.37;64.96;101848.09;4959063;28;20450;-78
2022/07/02 04:19:06;;;;;;;51.88;13.82;;;25.90;99.90;;;25.73;63.35;101854.59;4955987;28;20111;-78
2022/07/02 04:21:32;;;;;;;;;;;25.90;99.90;;;26.43;61.90;101858.88;4969407;28;20052;-78
2022/07/02 04:23:58;;;;;;;50.03;13.53;;;26.70;99.90;;;26.82;59.91;101856.88;4954228;28;19917;-78
2022/07/02 04:26:24;;;;;;;32.75;13.23;;;26.90;99.90;;;27.06;58.51;101864.41;4985756;28;20053;-78
2022/07/02 04:28:49;;;;;;;;;;;27.00;99.90;;;27.48;57.95;101861.16;4962188;28;20033;-78
2022/07/02 04:31:15;;;;;;;32.58;13.30;;;27.40;99.90;;;27.46;57.04;101879.38;4908656;28;19910;-78
2022/07/02 04:33:41;;;;;;;;;;;27.40;99.90;;;26.93;57.62;101874.72;4960355;28;22822;-79
2022/07/02 04:36:12;;;;;;;32.75;14.65;;;26.40;99.90;;;25.70;60.47;101870.22;4994093;28;19917;-78
2022/07/02 04:38:38;;;;;;;32.70;14.50;;;26.20;99.90;;;26.16;59.61;101876.72;4951543;28;20074;-78
2022/07/02 04:41:04;;;;;;;36.58;14.85;;;26.40;99.90;;;26.92;57.96;101881.16;4921920;28;20045;-78
2022/07/02 04:43:29;;;;;;;;;;;26.50;99.90;;;27.66;56.56;101890.06;4966926;28;20504;-79
2022/07/02 04:45:55;;;;;;;32.40;13.45;;;27.30;99.90;;;28.38;54.13;101893.47;4918267;28;19913;-78
2022/07/02 04:48:21;;;;;;;37.00;13.63;;;27.80;99.90;;;29.02;52.56;101902.94;4961122;28;20483;-78
2022/07/02 04:50:46;;;;;;;;;;;28.30;99.90;;;29.92;51.22;101904.16;4975155;28;20124;-79
2022/07/02 04:53:15;;;;;;;35.55;13.52;;;28.90;99.90;;;30.52;49.44;101905.59;4966457;28;19959;-80
2022/07/02 04:55:41;;;;;;;29.92;13.85;;;29.40;99.90;;;31.00;48.34;101915.47;4928419;28;20162;-79
2022/07/02 04:58:06;;;;;;;34.42;13.43;;;29.90;99.90;;;31.60;47.12;101918.50;4942443;28;20041;-78
2022/07/02 05:00:32;;;;;;;39.30;14.25;;;30.40;99.30;;;32.07;46.14;101925.63;4984236;28;20103;-79
2022/07/02 05:02:58;;;;;;;37.50;13.63;;;30.70;99.10;;;32.54;45.26;101932.69;4969692;28;20049;-79
2022/07/02 05:05:24;;;;;;;40.88;13.30;;;31.20;98.80;;;33.14;44.27;101936.22;4976147;28;20440;-79
2022/07/02 05:07:55;;;;;;;38.20;13.80;;;31.60;97.50;;;33.65;42.77;101930.72;4982502;22;20109;-79
2022/07/02 05:10:21;;;;;;;30.50;13.30;;;32.10;96.60;;;34.06;42.01;101940.94;4938150;28;20440;-79
2022/07/02 05:12:47;;;;;;;27.75;13.50;;;32.30;96.50;;;34.38;41.63;101955.06;4930433;28;20053;-79
2022/07/02 05:15:13;;;;;;;37.47;13.43;;;32.70;96.10;;;34.90;40.51;101959.22;4952794;28;20100;-78
2022/07/02 05:17:39;;;;;;;24.27;13.50;;;33.10;95.30;;;35.48;39.37;101967.00;4946564;28;20097;-78
2022/07/02 05:20:05;;;;;;;28.67;13.30;;;33.50;94.80;;;35.90;39.01;101964.97;4908095;28;20126;-79
2022/07/02 05:22:31;;;;;;;25.63;12.43;;;33.80;94.40;;;36.41;37.64;101968.97;4952435;28;20042;-79
2022/07/02 05:24:57;;;;;;;29.48;11.90;;;34.20;94.00;;;36.86;37.07;101981.97;4969469;28;20056;-79
2022/07/02 05:27:23;;;;;;;30.42;12.48;;;;;;;37.21;36.51;101982.47;4898459;28;20042;-78
2022/07/02 05:29:48;;;;;;;31.23;12.90;;;34.90;92.30;;;37.50;35.49;101992.06;4962541;28;20157;-78
2022/07/02 05:32:14;;;;;;;22.02;12.02;;;35.20;92.30;;;37.95;35.08;101993.91;4913655;28;20109;-79
2022/07/02 05:34:40;;;;;;;25.10;11.98;;;35.50;91.60;;;38.27;34.75;102005.69;4964459;28;20046;-79
2022/07/02 05:37:06;;;;;;;28.02;11.32;;;35.70;91.80;;;38.65;34.57;102012.13;4965945;28;20046;-79
2022/07/02 05:39:32;;;;;;;27.63;10.73;;;36.20;91.00;;;39.20;33.58;102005.78;4932939;28;20118;-79
2022/07/02 05:41:57;;;;;;;25.33;10.15;;;36.60;89.80;;;39.47;33.49;102014.56;4936153;28;20043;-79
2022/07/02 05:44:26;;;;;;;25.63;10.38;;;36.70;88.80;;;39.67;33.35;102015.09;4945372;28;20054;-79
2022/07/02 05:46:51;;;;;;;19.90;10.57;;;36.90;87.80;;;39.77;32.73;102020.88;4976442;22;20065;-79
2022/07/02 05:49:17;;;;;;;14.15;9.80;;;37.20;89.60;;;40.03;32.07;102024.31;4997811;28;20080;-79
2022/07/02 05:51:43;;;;;;;17.08;9.15;;;37.40;86.50;;;40.26;31.84;102036.44;4994696;28;20063;-78
2022/07/02 05:54:09;;;;;;;16.35;8.70;;;37.60;85.50;;;40.34;31.57;102041.63;4927458;28;20668;-79
2022/07/02 05:56:34;;;;;;;16.98;9.27;;;37.90;84.80;;;40.64;31.13;102040.66;4998834;28;20136;-76
2022/07/02 05:59:00;;;;;;;18.27;9.32;;;38.10;83.40;;;40.67;31.04;102045.69;4971957;28;20112;-77
2022/07/02 06:01:29;;;;;;;14.82;8.10;;;38.40;84.00;;;40.88;29.98;102056.16;4965938;28;20117;-77
2022/07/02 06:03:55;;;;;;;19.77;8.52;;;38.50;81.40;;;40.83;30.55;102061.56;4944674;28;20117;-77
2022/07/02 06:09:05;;;;;;;19.90;7.22;;;39.00;80.80;;;41.20;30.01;102061.28;4962558;28;20604;-77
2022/07/02 06:11:30;;;;;;;19.25;7.45;;;39.10;80.10;;;41.16;30.38;102066.44;4971737;28;20129;-77
2022/07/02 06:13:56;;;;;;;26.52;7.60;;;39.20;81.20;;;41.28;30.16;102058.13;4922672;28;20033;-77
2022/07/02 06:16:26;;;;;;;15.55;7.10;;;39.40;79.70;;;41.61;29.23;102070.41;4948100;28;20060;-78
2022/07/02 06:18:52;;;;;;;15.60;6.72;;;39.50;76.80;;;41.74;28.98;102072.84;4936076;28;20456;-77
2022/07/02 06:21:17;;;;;;;18.05;6.82;;;39.90;76.80;;;41.76;29.11;102064.31;4980660;28;20049;-77
2022/07/02 06:23:43;;;;;;;11.82;6.22;;;40.00;77.20;;;41.85;28.84;102073.03;4994002;28;20030;-77
2022/07/02 06:26:09;;;;;;;10.55;5.40;;;40.10;75.20;;;41.79;27.95;102074.84;5001162;22;20780;-78
2022/07/02 06:28:35;;;;;;;12.52;6.15;;;40.20;76.40;;;41.94;28.84;102069.59;5011349;28;20029;-77
2022/07/02 06:31:00;;;;;;;12.90;6.47;;;40.40;75.50;;;42.09;28.79;102073.75;4970427;28;20049;-77
2022/07/02 06:33:32;;;;;;;15.98;5.65;;;40.50;75.00;;;42.15;28.17;102072.75;4968353;28;20041;-78
2022/07/02 06:35:58;;;;;;;13.50;5.18;;;40.50;73.30;;;41.60;27.88;102075.09;4990184;28;20029;-77
2022/07/02 06:38:24;;;;;;;17.23;5.78;;;40.50;72.40;;;41.57;27.25;102078.34;4967082;28;20048;-77
2022/07/02 06:40:49;;;;;;;16.55;5.30;;;40.30;71.20;;;41.10;28.86;102072.91;4930298;28;20129;-77
2022/07/02 06:43:15;;;;;;;15.95;5.25;;;40.10;72.80;;;41.01;29.03;102068.84;4948154;28;20057;-77
2022/07/02 06:45:41;;;;;;;14.52;4.75;;;40.00;72.90;;;41.17;29.02;102070.06;4880946;28;20073;-77
2022/07/02 06:48:09;;;;;;;15.35;3.72;;;39.90;72.00;;;40.68;29.26;102069.47;4954344;28;20056;-77
2022/07/02 06:50:34;;;;;;;10.88;3.90;;;39.90;72.80;;;40.65;29.04;102064.41;4950866;28;20665;-77
2022/07/02 06:53:00;;;;;;;13.45;3.40;;;39.50;70.40;;;39.51;29.42;102070.88;4947792;28;22359;-77
2022/07/02 06:55:26;;;;;;;10.65;4.53;;;39.00;72.60;;;39.11;30.27;102061.16;4959586;28;20145;-77
2022/07/02 06:57:52;;;;;;;12.40;3.22;;;38.80;72.80;;;39.19;29.64;102065.53;4966319;28;20100;-77
2022/07/02 07:00:21;;;;;;;16.50;2.88;;;38.70;72.10;;;39.13;29.41;102069.19;4957428;28;20200;-77
2022/07/02 07:02:53;;;;;;;10.65;2.42;;;38.80;71.30;;;39.38;28.61;102075.44;4986267;28;20506;-77
2022/07/02 07:05:18;;;;;;;10.55;3.00;;;39.00;70.70;;;39.70;29.49;102074.41;4944504;28;20057;-78
2022/07/02 07:07:44;;;;;;;12.20;3.53;;;39.10;72.30;;;39.79;30.04;102070.25;4959417;28;20100;-77
2022/07/02 07:10:10;;;;;;;9.85;3.72;;;39.10;71.60;;;39.55;29.72;102072.09;4955653;28;20129;-77
2022/07/02 07:12:36;;;;;;;12.82;4.28;;;39.10;74.90;;;39.46;30.55;102066.06;4918950;28;20046;-77
2022/07/02 07:15:04;;;;;;;6.25;3.03;;;39.20;72.40;;;39.49;29.32;102065.59;4941707;28;20096;-78
2022/07/02 07:17:33;;;;;;;14.95;3.67;;;39.20;70.80;;;39.58;29.19;102077.13;4934896;28;21064;-77
2022/07/02 07:19:59;;;;;;;13.90;4.47;;;39.20;70.80;;;39.53;28.95;102074.25;4971293;28;20045;-77
2022/07/02 07:22:25;;;;;;;13.00;4.35;;;39.20;70.70;;;39.45;29.13;102074.56;4960385;28;20430;-76
2022/07/02 07:24:51;;;;;;;14.23;3.70;;;38.90;70.70;;;38.90;29.59;102075.34;4917819;28;20068;-76
2022/07/02 07:27:18;;;;;;;16.13;4.32;;;38.70;72.80;;;38.83;31.25;102058.91;4911328;28;20117;-76
2022/07/02 07:29:43;;;;;;;11.10;3.50;;;38.40;73.20;;;38.57;30.27;102062.78;4931798;28;20430;-75
2022/07/02 07:32:12;;;;;;;14.15;3.40;;;38.20;69.40;;;38.19;29.88;102069.25;4969712;28;20171;-76
2022/07/02 07:34:37;;;;;;;10.45;3.20;;;38.00;69.10;;;37.90;31.07;102070.66;4989694;28;20046;-75
2022/07/02 07:37:03;;;;;;;12.60;3.45;;;37.60;71.80;;;37.49;31.26;102061.78;4975092;28;20052;-75
2022/07/02 07:39:29;;;;;;;10.55;3.80;;;37.10;71.60;;;36.25;32.43;102066.25;4962031;28;20444;-76
2022/07/02 07:41:55;;;;;;;8.88;3.58;;;36.10;71.20;;;34.62;33.89;102043.16;4984334;28;20046;-76
2022/07/02 07:44:20;;;;;;;23.67;4.18;;;35.10;73.10;;;34.25;35.54;102036.97;4968852;28;20137;-76
2022/07/02 07:46:48;;;;;;;12.68;3.40;;;34.70;76.70;;;34.77;34.73;102049.38;4972416;28;20026;-75
2022/07/02 07:49:16;;;;;;;12.20;4.35;;;34.50;75.50;;;34.16;35.21;102032.72;4957525;28;20527;-76
2022/07/02 07:51:42;;;;;;;10.25;3.38;;;34.20;75.60;;;34.02;35.00;102045.34;4940052;28;20030;-76
2022/07/02 07:54:08;;;;;;;15.20;3.22;;;34.00;75.30;;;34.28;34.34;102040.19;4952751;28;20751;-75
2022/07/02 07:56:33;;;;;;;15.13;3.22;;;33.80;75.40;;;33.39;35.07;102035.00;4958157;28;20592;-76
2022/07/02 07:58:59;;;;;;;9.98;2.20;;;33.60;76.40;;;33.65;34.81;102030.88;4972456;28;20125;-76
2022/07/02 08:01:26;;;;;;;12.48;3.03;;;33.60;76.90;;;33.82;35.18;102031.50;5011196;28;20098;-76
2022/07/02 08:03:52;;;;;;;9.52;2.97;;;33.70;76.30;;;34.00;34.97;102031.06;4961720;28;20029;-77
2022/07/02 08:06:17;;;;;;;9.57;2.42;;;33.80;75.50;;;34.10;34.69;102026.97;4965396;28;20041;-75
2022/07/02 08:08:43;;;;;;;12.10;2.60;;;33.80;74.60;;;34.07;34.39;102027.34;4967990;28;20094;-76
2022/07/02 08:11:09;;;;;;;10.35;2.78;;;33.70;74.70;;;33.99;34.19;102024.72;4969692;28;20105;-76
2022/07/02 08:13:35;;;;;;;15.68;2.78;;;33.60;75.20;;;34.01;33.95;102021.81;4979148;28;20043;-76
2022/07/02 08:16:00;;;;;;;8.63;1.90;;;33.50;74.00;;;33.82;33.48;102028.75;4976301;28;20090;-77
2022/07/02 08:18:26;;;;;;;15.52;2.30;;;33.40;74.90;;;33.20;35.29;102024.69;4983543;28;20118;-77
2022/07/02 08:20:52;;;;;;;8.35;2.75;;;33.10;75.80;;;32.93;35.10;102024.25;4987702;28;20175;-76
2022/07/02 08:23:18;;;;;;;13.55;1.98;;;32.70;74.80;;;32.33;36.40;102014.28;4968249;28;20868;-77
2022/07/02 08:25:44;;;;;;;13.68;2.60;;;32.40;76.00;;;32.19;36.23;102015.97;4983551;28;20025;-77
2022/07/02 08:28:10;;;;;;;7.95;2.55;;;32.00;76.50;;;31.70;37.03;102019.00;4957446;28;20099;-78
2022/07/02 08:30:36;;;;;;;8.07;2.50;;;31.60;77.30;;;31.36;37.55;102004.72;4928255;28;20105;-78
2022/07/02 08:33:02;;;;;;;10.15;2.10;;;31.10;77.50;;;30.40;38.88;102000.22;4927831;28;20540;-78
2022/07/02 08:35:28;;;;;;;11.00;2.70;;;30.70;77.30;;;30.32;37.92;102005.66;4914750;28;20026;-79
2022/07/02 08:37:54;;;;;;;7.85;1.38;;;30.30;75.90;;;29.95;37.18;101999.69;4964273;28;20131;-79
2022/07/02 08:40:36;;;;;;;5.82;1.30;;;30.00;73.90;;;29.45;36.64;102014.16;4942973;28;20034;-78
2022/07/02 08:43:07;;;;;;;4.22;1.50;;;29.80;74.10;;;29.10;38.02;102013.34;4936879;28;20045;-79
2022/07/02 08:45:34;;;;;;;3.83;1.40;;;;;;;28.95;40.02;101996.81;4949334;28;20033;-78
2022/07/02 08:48:04;;;;;;;11.75;2.15;;;29.40;79.50;;;28.90;40.82;101999.16;4983340;28;20025;-79
2022/07/02 08:50:39;;;;;;;14.52;2.08;;;29.30;80.70;;;28.85;40.35;101996.06;4961590;28;20033;-78
2022/07/02 08:53:06;;;;;;;8.75;1.63;;;29.20;77.60;;;28.74;40.03;101999.06;4962442;28;20637;-79
2022/07/02 08:55:42;;;;;;;18.17;1.67;;;29.10;77.00;;;28.59;39.14;102006.91;4940627;28;20118;-78
2022/07/02 08:58:10;;;;;;;6.32;1.30;;;29.00;79.30;;;28.57;40.13;102006.22;4932584;28;20097;-79
2022/07/02 09:00:37;;;;;;;5.55;1.50;;;28.80;79.60;;;28.21;40.61;101988.16;4936068;28;20085;-80
2022/07/02 09:03:09;;;;;;;5.65;1.30;;;28.80;80.30;;;28.21;40.45;101984.63;4936566;28;20647;-80
2022/07/02 09:05:37;;;;;;;9.40;1.40;;;28.60;78.40;;;27.92;40.11;101987.56;4948301;28;20034;-80
2022/07/02 09:08:05;;;;;;;4.10;1.30;;;28.50;79.40;;;27.81;41.28;101980.50;4945217;28;20034;-79
2022/07/02 09:10:40;;;;;;;6.28;1.50;;;28.20;77.40;;;27.17;41.81;101979.59;4954203;28;20034;-80
2022/07/02 09:13:13;;;;;;;4.05;1.20;;;28.00;85.00;;;27.26;43.17;101980.56;4920948;28;20032;-80
2022/07/02 09:15:43;;;;;;;5.47;1.10;;;27.80;82.40;;;27.18;43.39;101984.84;4873967;28;20039;-80
2022/07/02 09:18:09;;;;;;;8.13;1.13;;;27.80;79.50;;;27.19;41.25;101997.38;4921694;28;20037;-79
2022/07/02 09:20:37;;;;;;;4.57;1.15;;;27.70;79.50;;;26.98;41.63;101991.34;4986927;28;20065;-80
2022/07/02 09:23:09;;;;;;;1.98;1.00;;;27.60;81.60;;;27.12;42.23;101985.44;4900031;28;20037;-80
2022/07/02 09:25:35;;;;;;;12.55;1.13;;;27.60;83.30;;;27.16;42.60;101986.84;4956769;28;20522;-80
2022/07/02 09:28:14;;;;;;;12.63;2.38;;;27.60;81.60;;;27.09;42.95;101985.75;4978409;22;20048;-79
2022/07/02 09:30:55;;;;;;;4.47;1.27;;;27.50;81.90;;;26.94;42.65;101981.84;4946634;28;20124;-79
2022/07/02 09:33:32;;;;;;;5.88;1.20;;;27.20;82.60;;;26.29;43.73;101969.06;5007151;28;20030;-80
2022/07/02 09:36:13;;;;;;;5.30;1.30;;;26.90;85.20;;;26.17;45.99;101962.94;4974900;28;20112;-79
2022/07/02 09:38:45;;;;;;;6.43;1.30;;;27.00;83.80;;;26.55;44.20;101976.53;4948760;28;20061;-79
2022/07/02 09:41:20;;;;;;;6.10;1.48;;;27.10;85.20;;;26.88;44.50;101972.47;4975274;28;20021;-79
2022/07/02 09:44:05;;;;;;;14.77;1.42;;;27.40;82.10;;;27.19;41.67;101989.28;4917081;28;20046;-79
2022/07/02 09:46:42;;;;;;;13.50;1.20;;;27.60;82.40;;;27.51;43.00;101992.53;4938506;28;20022;-79
2022/07/02 09:49:19;;;;;;;111.35;11.07;;;27.90;81.70;;;27.74;42.10;101990.25;4964847;28;20073;-79
2022/07/02 09:51:50;;;;;;;8.25;1.70;;;28.10;82.90;;;27.92;42.50;101990.28;4934287;28;20109;-80
2022/07/02 09:54:23;;;;;;;4.30;0.90;;;28.30;82.10;;;27.99;40.61;101988.63;4912709;28;20137;-80
2022/07/02 09:57:00;;;;;;;10.18;1.15;;;28.30;81.40;;;27.86;41.97;101991.72;4938247;28;20160;-79
2022/07/02 09:59:26;;;;;;;3.90;1.05;;;28.10;75.90;;;27.42;40.73;101997.84;4976136;28;20049;-79
2022/07/02 10:02:00;;;;;;;6.30;1.10;;;27.90;80.20;;;27.14;41.33;101993.41;4948775;28;20033;-79
2022/07/02 10:04:33;;;;;;;6.65;1.20;;;27.80;81.10;;;27.29;41.41;101985.69;4898161;28;20496;-78
2022/07/02 10:07:00;;;;;;;3.90;1.00;;;27.70;80.40;;;27.34;42.06;101986.06;4915976;28;20582;-79
2022/07/02 10:09:27;;;;;;;6.72;1.08;;;27.70;81.10;;;27.13;42.51;101989.03;4942122;28;20532;-79